createdAt,value
2018-01-03T00:00:06.114Z,68.2
2018-01-03T00:15:04.670Z,68.4
2018-01-03T00:30:05.381Z,69.1
2018-01-03T00:45:05.367Z,69.5
2018-01-03T01:00:04.958Z,69.8
2018-01-03T01:15:05.045Z,70.5
2018-01-03T01:30:06.397Z,70.9
2018-01-03T01:45:05.409Z,71.6
2018-01-03T02:15:05.583Z,70.6
2018-01-03T02:30:11.651Z,70.1
2018-01-03T02:45:05.322Z,71.4
2018-01-03T03:00:08.198Z,71.6
2018-01-03T03:15:23.917Z,71.8
2018-01-03T03:30:08.432Z,72.6
2018-01-03T03:45:04.758Z,72.4
2018-01-03T04:00:04.579Z,72.9
2018-01-03T04:15:04.623Z,73
2018-01-03T04:30:04.814Z,73.3
2018-01-03T04:45:04.832Z,71.8
2018-01-03T05:00:04.612Z,70.1
2018-01-03T05:15:04.706Z,68.7
2018-01-03T05:30:05.409Z,68.2
2018-01-03T05:45:04.700Z,67.9
2018-01-03T06:00:04.605Z,67.6
2018-01-03T06:15:04.508Z,67.7
2018-01-03T06:30:04.657Z,67.1
2018-01-03T06:45:04.530Z,67.9
2018-01-03T07:00:05.061Z,67
2018-01-03T07:15:04.509Z,67.5
2018-01-03T07:30:04.723Z,68.3
2018-01-03T07:45:14.997Z,68.7
2018-01-03T08:00:04.504Z,69.2
2018-01-03T08:15:04.329Z,68.7
2018-01-03T08:30:05.464Z,68.2
2018-01-03T08:45:04.888Z,67.9
2018-01-03T09:00:04.250Z,66.5
2018-01-03T09:15:05.269Z,62.6
2018-01-03T09:30:20.563Z,62.1
2018-01-03T09:45:04.991Z,66
2018-01-03T10:00:05.436Z,72.4
2018-01-03T10:15:08.001Z,72.8
2018-01-03T10:30:04.567Z,75.2
2018-01-03T10:45:04.524Z,74.3
2018-01-03T11:00:04.958Z,70.6
2018-01-03T11:15:04.836Z,66.2
2018-01-03T11:30:06.105Z,66.8
2018-01-03T11:45:20.432Z,70.6
2018-01-03T12:00:08.023Z,69.5
2018-01-03T12:15:04.487Z,68.5
2018-01-03T12:30:05.107Z,67.3
2018-01-03T12:45:04.591Z,67.1
2018-01-03T13:00:08.163Z,65.2
2018-01-03T13:15:05.545Z,63.4
2018-01-03T13:30:06.181Z,61.7
2018-01-03T13:45:06.143Z,61.2
2018-01-03T14:00:05.534Z,59.9
2018-01-03T14:15:07.608Z,58.3
2018-01-03T14:30:07.881Z,58.7
2018-01-03T14:45:05.225Z,56.8
2018-01-03T15:00:06.155Z,55.6
2018-01-03T15:15:04.720Z,54.6
2018-01-03T15:30:05.457Z,54.9
2018-01-03T15:45:04.880Z,53.4
2018-01-03T16:00:06.013Z,52.9
2018-01-03T16:15:04.508Z,53.2
2018-01-03T16:30:05.210Z,53.9
2018-01-03T16:45:04.760Z,54.8
2018-01-03T17:00:04.352Z,55.5
2018-01-03T17:15:05.824Z,55.6
2018-01-03T17:30:05.547Z,57.2
2018-01-03T17:45:06.054Z,57.9
2018-01-03T18:00:11.420Z,57.8
2018-01-03T18:15:13.145Z,58.9
2018-01-03T18:30:05.020Z,63.4
2018-01-03T18:45:05.777Z,65.8
2018-01-03T19:00:04.977Z,65
2018-01-03T19:15:05.691Z,66
2018-01-03T19:30:07.686Z,65.2
2018-01-03T19:45:05.289Z,64
2018-01-03T20:00:04.775Z,62.9
2018-01-03T20:15:06.512Z,60.6
2018-01-03T20:30:06.037Z,61.1
2018-01-03T20:45:08.372Z,60.6
2018-01-03T21:00:05.682Z,60.3
2018-01-03T21:15:04.938Z,60.9
2018-01-03T21:30:04.616Z,61.9
2018-01-03T21:45:06.167Z,65.1
2018-01-03T22:00:05.035Z,67.7
2018-01-03T22:15:05.251Z,67.9
2018-01-03T22:30:04.511Z,68.1
2018-01-03T22:45:04.556Z,67.5
2018-01-03T23:00:08.346Z,66.5
2018-01-03T23:15:05.108Z,67.3
2018-01-03T23:30:04.962Z,66.8
2018-01-03T23:45:06.176Z,66.4
